Latest Weather Observations for Mount Crawford

IDS60801

Issued at 7:01 pm CDT Thursday 30 March 2017 (issued every 30 minutes, with the page automatically refreshed every 10 minutes)

About weather observations | Map of weather stations | Latest weather observations for SA | Other Formats
Station Details ID: 023878 Name: MOUNT CRAWFORD AWS Lat: -34.73 Lon: 138.93 Height: 525.0 m
Data from the previous 72 hours. | See also: Recent months at Mount Crawford
Date/Time
CDT
Temp
°C
App
Temp
°C
Dew
Point
°C
Rel
Hum
%
Delta-T
°C
Wind Press
QNH
hPa
Press
MSL
hPa
Rain since
9am
mm
Dir  Spd
km/h
Gust
km/h
Spd
kts
Gust
kts
30/06:30pm 11.8 7.1 5.9 67 2.8 SSW 20 30 11 16 1022.9 1021.4 0.0
30/06:00pm 12.3 7.2 6.1 66 3.0 SSW 22 32 12 17 1022.7 1021.2 0.0
30/05:30pm 13.0 8.0 6.4 64 3.2 SSW 22 30 12 16 1022.5 1021.0 0.0
30/05:00pm 13.9 9.0 5.0 55 4.3 SSW 20 28 11 15 1022.4 1020.9 0.0
30/04:30pm 13.5 9.0 5.9 60 3.7 SW 19 30 10 16 1022.4 1020.9 0.0
30/04:00pm 14.3 8.8 4.0 50 4.9 SSW 22 35 12 19 1021.9 1020.3 0.0
30/03:30pm 13.0 7.8 5.7 61 3.5 SSW 22 32 12 17 1022.0 1020.4 0.0
30/03:00pm 13.4 8.2 5.3 58 3.9 S 22 30 12 16 1022.1 1020.5 0.0
30/02:30pm 13.5 9.0 5.9 60 3.7 SW 19 30 10 16 1022.1 1020.5 0.0
30/02:00pm 13.5 8.4 6.1 61 3.6 SSW 22 35 12 19 1022.4 1020.9 0.0
30/01:30pm 13.1 7.8 4.8 57 3.9 SW 22 32 12 17 1022.6 1021.1 0.0
30/01:00pm 14.3 9.7 5.7 56 4.2 SW 19 28 10 15 1022.6 1021.1 0.0
30/12:30pm 15.3 10.7 5.8 53 4.7 SSW 19 28 10 15 1022.6 1021.1 0.0
30/12:00pm 14.5 10.0 6.8 60 3.8 S 20 32 11 17 1022.6 1021.1 0.0
30/11:30am 12.9 7.6 6.7 66 3.0 SSW 24 35 13 19 1022.3 1020.8 0.0
30/11:00am 11.9 6.4 7.4 74 2.2 SSW 26 39 14 21 1022.2 1020.7 0.0
30/10:30am 11.0 5.1 7.3 78 1.8 SSW 28 39 15 21 1022.1 1020.5 0.0
30/10:00am 11.1 6.2 7.0 76 2.0 SSW 22 35 12 19 1022.0 1020.4 0.0
30/09:30am 10.4 5.1 6.7 78 1.8 SSW 24 33 13 18 1021.9 1020.3 0.0
30/09:00am 9.7 5.1 6.6 81 1.5 SSW 20 32 11 17 1021.3 1019.7 3.0
30/08:30am 8.8 4.4 6.4 85 1.1 SSW 19 26 10 14 1021.2 1019.6 3.0
30/08:00am 8.1 3.9 5.9 86 1.0 SSW 17 22 9 12 1020.6 1019.1 3.0
30/07:30am 7.9 3.1 5.7 86 1.0 SSW 20 28 11 15 1020.0 1018.4 3.0
30/07:00am 8.2 3.1 6.0 86 1.0 SW 22 30 12 16 1019.8 1018.2 3.0
30/06:30am 7.9 3.6 5.4 84 1.2 SW 17 24 9 13 1019.6 1018.0 3.0
30/06:00am 8.2 3.5 5.3 82 1.3 SW 19 32 10 17 1019.2 1017.6 3.0
30/05:30am 8.0 2.8 5.6 85 1.1 SW 22 32 12 17 1018.6 1017.0 3.0
30/05:00am 7.7 3.5 5.8 88 0.9 SW 17 24 9 13 1018.4 1016.8 3.0
30/04:30am 7.9 3.4 5.9 87 0.9 SW 19 26 10 14 1017.8 1016.2 3.0
30/04:00am 7.6 3.4 5.7 88 0.9 WSW 17 26 9 14 1017.7 1016.1 3.0
30/03:30am 8.0 3.3 5.3 83 1.2 SW 19 24 10 13 1017.6 1016.0 3.0
30/03:00am 7.9 4.1 6.0 88 0.9 SW 15 22 8 12 1017.5 1015.9 3.0
30/02:30am 8.2 3.7 6.0 86 1.0 SW 19 28 10 15 1017.5 1015.9 3.0
30/02:00am 7.9 3.7 5.7 86 1.0 SW 17 22 9 12 1017.5 1015.9 3.0
30/01:30am 8.5 3.7 5.8 83 1.3 SW 20 28 11 15 1017.4 1015.8 2.8
30/01:00am 8.4 3.5 5.3 81 1.4 SSW 20 28 11 15 1017.3 1015.7 2.8
30/12:30am 8.0 3.5 6.1 88 0.9 SW 19 28 10 15 1017.2 1015.6 2.8
30/12:00am 7.9 3.5 6.5 91 0.7 SW 19 26 10 14 1017.1 1015.4 2.8
 
Date/Time
CDT
Temp
°C
App
Temp
°C
Dew
Point
°C
Rel
Hum
%
Delta-T
°C
Wind Press
QNH
hPa
Press
MSL
hPa
Rain since
9am
mm
Dir  Spd
km/h
Gust
km/h
Spd
kts
Gust
kts
29/11:30pm 8.2 3.8 6.7 90 0.7 SW 19 30 10 16 1016.9 1015.3 2.8
29/11:00pm 8.5 4.3 7.6 94 0.4 SW 19 30 10 16 1016.8 1015.2 2.8
29/10:30pm 8.6 5.0 8.5 99 0.0 SW 17 24 9 13 1016.6 1015.0 2.8
29/10:00pm 8.9 5.4 8.8 99 0.1 SW 17 24 9 13 1016.2 1014.6 2.8
29/09:30pm 9.2 4.8 9.1 99 0.1 SW 22 33 12 18 1016.0 1014.4 2.6
29/09:00pm 9.1 5.3 9.0 99 0.1 SW 19 28 10 15 1015.6 1014.0 2.0
29/08:30pm 10.0 4.7 9.9 99 0.1 WSW 28 52 15 28 1015.3 1013.6 1.8
29/08:27pm 10.1 5.6 10.0 99 0.1 WSW 24 52 13 28 1015.1 1013.4 1.8
29/08:25pm 10.3 6.2 10.1 99 0.1 SW 22 52 12 28 1014.8 1013.2 1.6
29/08:00pm 10.5 7.0 10.3 99 0.1 SW 19 30 10 16 1014.5 1012.9 1.2
29/07:30pm 10.8 6.5 10.8 100 0.0 SW 24 37 13 20 1014.0 1012.4 1.2
29/07:01pm 11.9 7.0 11.3 96 0.3 W 28 46 15 25 1013.1 1011.4 0.8
29/07:00pm 11.9 7.3 11.1 95 0.4 W 26 46 14 25 1012.9 1011.3 0.8
29/06:30pm 12.4 7.9 11.3 93 0.6 WSW 26 43 14 23 1012.6 1011.0 0.8
29/06:00pm 12.7 8.6 11.6 93 0.6 WSW 24 41 13 22 1012.2 1010.6 0.8
29/05:30pm 12.6 8.2 11.8 95 0.4 WSW 26 37 14 20 1012.0 1010.3 0.8
29/05:19pm 12.7 7.8 11.4 92 0.7 WSW 28 48 15 26 1011.8 1010.1 0.8
29/05:00pm 12.5 9.7 12.5 100 0.0 WSW 19 32 10 17 1011.9 1010.2 0.8
29/04:38pm 12.0 7.3 12.0 100 0.0 SW 28 46 15 25 1011.8 1010.1 0.8
29/04:30pm 12.3 7.7 12.3 100 0.0 WSW 28 44 15 24 1011.7 1010.0 0.6
29/04:18pm 13.1 8.8 13.1 100 0.0 WSW 28 48 15 26 1011.4 1009.7 0.6
29/04:00pm 13.8 10.8 13.8 100 0.0 WSW 22 35 12 19 1011.1 1009.4 0.4
29/03:30pm 14.1 9.3 14.1 100 0.0 WSW 32 56 17 30 1010.6 1009.0 0.2
29/03:00pm 17.3 11.3 12.2 72 2.9 W 35 56 19 30 1010.1 1008.4 0.0
29/02:30pm 17.6 10.5 12.1 70 3.1 W 41 59 22 32 1010.4 1008.7 0.0
29/02:02pm 17.1 10.4 12.2 73 2.8 W 39 61 21 33 1010.4 1008.7 0.0
29/02:00pm 17.5 10.7 12.0 70 3.1 W 39 54 21 29 1010.7 1009.1 0.0
29/01:30pm 18.0 10.6 12.5 70 3.1 W 43 65 23 35 1010.8 1009.2 0.0
29/01:05pm 17.5 9.7 11.8 69 3.2 W 44 63 24 34 1010.8 1009.2 0.0
29/01:00pm 17.5 9.4 12.2 71 3.0 W 46 61 25 33 1010.8 1009.2 0.0
29/12:30pm 17.8 11.0 12.0 69 3.3 WNW 39 59 21 32 1011.1 1009.4 0.0
29/12:05pm 17.8 11.8 12.0 69 3.3 W 35 54 19 29 1011.3 1009.6 0.0
29/12:00pm 17.5 12.0 12.4 72 2.9 WNW 33 48 18 26 1011.4 1009.7 0.0
29/11:33am 16.6 11.4 12.8 78 2.2 WNW 32 50 17 27 1011.6 1009.9 0.0
29/11:30am 16.5 11.1 12.7 78 2.2 WNW 33 44 18 24 1011.7 1010.0 0.0
29/11:11am 15.8 11.4 12.9 83 1.6 W 28 46 15 25 1011.8 1010.1 0.0
29/11:00am 15.6 11.3 13.3 86 1.3 WNW 28 41 15 22 1011.8 1010.1 0.0
29/10:30am 15.5 12.5 14.9 96 0.4 WNW 24 35 13 19 1011.8 1010.1 0.0
29/10:00am 13.7 9.2 13.7 100 0.0 WNW 30 39 16 21 1011.8 1010.1 0.0
29/09:30am 12.9 8.5 12.9 100 0.0 WNW 28 37 15 20 1011.7 1010.0 0.0
29/09:00am 12.6 7.7 12.6 100 0.0 WNW 30 41 16 22 1011.6 1009.9 0.0
29/08:30am 12.4 7.5 12.4 100 0.0 WNW 30 44 16 24 1011.5 1009.8 0.0
29/08:00am 12.2 7.6 12.2 100 0.0 WNW 28 39 15 21 1011.4 1009.7 0.0
29/07:30am 12.4 8.2 12.4 100 0.0 WNW 26 35 14 19 1011.1 1009.4 0.0
29/07:00am 12.5 8.3 12.5 100 0.0 WNW 26 33 14 18 1011.3 1009.6 0.0
29/06:30am 12.5 9.5 12.5 100 0.0 WNW 20 30 11 16 1010.9 1009.3 0.0
29/06:00am 12.4 9.4 12.4 100 0.0 NW 20 28 11 15 1010.9 1009.3 0.0
29/05:30am 12.5 9.1 12.5 100 0.0 WNW 22 30 12 16 1010.8 1009.2 0.0
29/05:00am 12.8 9.9 12.8 100 0.0 WNW 20 28 11 15 1010.9 1009.3 0.0
29/04:30am 12.6 9.6 12.6 100 0.0 WNW 20 26 11 14 1010.9 1009.3 0.0
29/04:00am 12.5 9.7 12.5 100 0.0 W 19 22 10 12 1011.3 1009.6 0.0
29/03:30am 12.6 10.2 12.6 100 0.0 W 17 20 9 11 1011.4 1009.7 0.0
29/03:00am 12.5 10.4 12.5 100 0.0 W 15 19 8 10 1011.8 1010.1 0.0
29/02:30am 12.7 10.3 12.7 100 0.0 W 17 19 9 10 1011.9 1010.2 0.0
29/02:00am 12.7 11.1 12.7 100 0.0 W 13 17 7 9 1012.3 1010.7 0.0
29/01:30am 12.8 10.8 12.6 99 0.1 WSW 15 20 8 11 1012.4 1010.8 0.0
29/01:00am 12.8 10.4 12.6 99 0.1 WSW 17 22 9 12 1012.8 1011.2 0.0
29/12:30am 12.7 10.5 12.1 96 0.3 WSW 15 17 8 9 1013.3 1011.6 0.0
29/12:00am 13.2 11.2 11.6 90 0.9 W 13 17 7 9 1013.5 1011.8 0.0
 
Date/Time
CDT
Temp
°C
App
Temp
°C
Dew
Point
°C
Rel
Hum
%
Delta-T
°C
Wind Press
QNH
hPa
Press
MSL
hPa
Rain since
9am
mm
Dir  Spd
km/h
Gust
km/h
Spd
kts
Gust
kts
28/11:30pm 14.1 12.0 11.3 83 1.5 WNW 13 17 7 9 1013.7 1012.0 0.0
28/11:00pm 14.2 11.7 11.0 81 1.7 W 15 19 8 10 1014.0 1012.4 0.0
28/10:30pm 14.5 11.9 10.7 78 2.1 WNW 15 19 8 10 1014.1 1012.5 0.0
28/10:00pm 14.5 12.0 10.9 79 2.0 W 15 19 8 10 1014.1 1012.5 0.0
28/09:30pm 14.7 12.1 10.7 77 2.2 WNW 15 19 8 10 1014.2 1012.6 0.0
28/09:00pm 14.4 12.5 10.6 78 2.1 W 11 13 6 7 1014.0 1012.4 0.0
28/08:30pm 14.7 12.7 10.3 75 2.4 W 11 17 6 9 1013.9 1012.3 0.0
28/08:00pm 15.3 12.6 10.3 72 2.7 WSW 15 19 8 10 1013.7 1012.0 0.0
28/07:30pm 16.0 13.6 10.1 68 3.2 W 13 19 7 10 1013.5 1011.8 0.0
28/07:00pm 17.3 14.5 10.0 62 4.0 WSW 15 24 8 13 1013.5 1011.8 0.0
28/06:30pm 18.6 15.0 9.7 56 4.8 W 19 28 10 15 1013.4 1011.7 0.0
28/06:00pm 19.5 16.0 10.2 55 5.1 W 19 28 10 15 1013.5 1011.8 0.0
28/05:30pm 20.3 16.9 10.4 53 5.5 W 19 26 10 14 1013.5 1011.8 0.0
28/05:00pm 20.5 16.9 9.7 50 5.9 W 19 28 10 15 1013.6 1011.9 0.0
28/04:30pm 19.7 15.5 9.6 52 5.5 W 22 33 12 18 1013.7 1012.0 0.0
28/04:00pm 20.5 16.9 10.0 51 5.8 WNW 19 26 10 14 1013.9 1012.3 0.0
28/03:30pm 20.1 16.1 10.5 54 5.3 W 22 32 12 17 1014.1 1012.5 0.0
28/03:00pm 20.1 16.5 10.5 54 5.3 W 20 30 11 16 1014.4 1012.8 0.0
28/02:30pm 19.1 15.3 11.2 60 4.4 W 22 32 12 17 1014.6 1013.0 0.0
28/02:00pm 19.2 15.8 11.3 60 4.4 W 20 32 11 17 1015.1 1013.4 0.0
28/01:30pm 18.1 13.7 10.5 61 4.2 W 24 35 13 19 1015.4 1013.7 0.0
28/01:00pm 18.0 14.4 10.6 62 4.1 WNW 20 35 11 19 1016.0 1014.4 0.0
28/12:30pm 16.4 13.3 11.6 73 2.7 W 19 30 10 16 1016.5 1014.9 0.0
28/12:00pm 15.5 12.4 11.7 78 2.1 WNW 19 28 10 15 1016.8 1015.2 0.0
28/11:30am 15.0 11.8 11.8 81 1.8 W 20 28 11 15 1016.8 1015.2 0.0
28/11:00am 14.7 12.0 11.8 83 1.6 WNW 17 24 9 13 1017.1 1015.4 0.0
28/10:30am 14.0 11.3 11.7 86 1.3 W 17 24 9 13 1016.9 1015.3 0.0
28/10:00am 13.4 11.0 11.3 87 1.1 WNW 15 19 8 10 1016.9 1015.3 0.0
28/09:30am 13.2 10.7 10.9 86 1.2 WNW 15 20 8 11 1016.8 1015.2 0.0
28/09:00am 13.0 10.9 11.1 88 1.0 NW 13 19 7 10 1016.4 1014.8 0.0
28/08:30am 12.5 10.9 11.7 95 0.4 NNW 11 15 6 8 1016.3 1014.7 0.0
28/08:00am 12.1 10.0 11.2 94 0.5 NW 13 17 7 9 1016.1 1014.5 0.0
28/07:30am 11.7 9.9 10.9 95 0.4 WNW 11 17 6 9 1016.0 1014.4 0.0
28/07:00am 11.5 9.8 11.3 99 0.1 W 11 15 6 8 1015.8 1014.2 0.0
28/06:30am 10.8 9.3 10.6 99 0.1 WNW 9 15 5 8 1015.7 1014.1 0.0
28/06:00am 11.3 10.0 11.1 99 0.1 W 9 17 5 9 1015.6 1014.0 0.0
28/05:30am 11.3 9.6 11.1 99 0.1 W 11 17 6 9 1015.5 1013.9 0.0
28/05:00am 11.6 9.6 11.4 99 0.1 WSW 13 19 7 10 1015.3 1013.6 0.0
28/04:30am 11.8 9.8 11.6 99 0.1 WSW 13 22 7 12 1015.3 1013.6 0.0
28/04:00am 11.6 10.0 11.4 99 0.1 W 11 19 6 10 1015.8 1014.2 0.0
28/03:30am 11.9 9.2 11.7 99 0.1 W 17 24 9 13 1016.0 1014.4 0.0
28/03:00am 11.7 9.7 11.5 99 0.1 W 13 24 7 13 1016.1 1014.5 0.0
28/02:30am 12.0 10.1 11.8 99 0.1 W 13 20 7 11 1016.3 1014.7 0.0
28/02:00am 11.9 9.1 11.4 97 0.3 W 17 22 9 12 1016.5 1014.9 0.0
28/01:30am 12.1 9.3 11.3 95 0.4 W 17 20 9 11 1016.7 1015.1 0.0
28/01:00am 12.2 9.8 11.3 94 0.5 W 15 20 8 11 1016.7 1015.1 0.0
28/12:30am 12.5 10.0 11.2 92 0.7 W 15 19 8 10 1016.8 1015.2 0.0
28/12:00am 12.9 10.5 11.3 90 0.9 W 15 22 8 12 1016.7 1015.1 0.0
 
Date/Time
CDT
Temp
°C
App
Temp
°C
Dew
Point
°C
Rel
Hum
%
Delta-T
°C
Wind Press
QNH
hPa
Press
MSL
hPa
Rain since
9am
mm
Dir  Spd
km/h
Gust
km/h
Spd
kts
Gust
kts
27/11:30pm 12.9 10.8 11.0 88 1.0 W 13 17 7 9 1016.7 1015.1 0.0
27/11:00pm 13.1 10.8 10.3 83 1.5 WSW 13 19 7 10 1016.8 1015.2 0.0
27/10:30pm 13.5 11.0 9.6 77 2.1 WSW 13 17 7 9 1016.8 1015.2 0.0
27/10:00pm 13.5 11.4 8.1 70 2.8 W 9 15 5 8 1016.7 1015.1 0.0
27/09:30pm 14.1 11.6 8.1 67 3.1 W 11 15 6 8 1016.5 1014.9 0.0
27/09:00pm 13.5 11.3 7.7 68 2.9 W 9 11 5 6 1016.3 1014.7 0.0
27/08:30pm 14.0 11.5 8.4 69 2.9 W 11 17 6 9 1016.1 1014.5 0.0
27/08:00pm 14.5 11.7 8.5 67 3.1 WSW 13 17 7 9 1015.9 1014.3 0.0
27/07:30pm 15.1 11.5 8.3 64 3.5 WSW 17 24 9 13 1015.9 1014.3 0.0

Other Formats:

Comma delimited format used in spreadsheet applications
http://www.bom.gov.au/fwo/IDS60801/IDS60801.94678.axf

JavaScript Object Notation format (JSON) in row-major order
http://www.bom.gov.au/fwo/IDS60801/IDS60801.94678.json